createdAt,value
2023-03-12T00:01:18.054Z,24.30
2023-03-12T00:03:45.053Z,24.80
2023-03-12T00:06:12.587Z,15.20
2023-03-12T00:08:40.527Z,18.65
2023-03-12T00:11:10.107Z,19.67
2023-03-12T00:13:37.028Z,13.20
2023-03-12T00:16:19.117Z,21.77
2023-03-12T00:18:51.276Z,16.70
2023-03-12T00:21:18.981Z,17.55
2023-03-12T00:23:47.642Z,14.80
2023-03-12T00:26:14.719Z,14.82
2023-03-12T00:28:42.510Z,19.27
2023-03-12T00:31:24.745Z,11.52
2023-03-12T00:33:51.559Z,11.18
2023-03-12T00:36:21.382Z,13.85
2023-03-12T00:38:48.290Z,17.48
2023-03-12T00:41:15.151Z,12.88
2023-03-12T00:43:41.965Z,17.75
2023-03-12T00:46:10.151Z,14.40
2023-03-12T00:48:37.456Z,14.52
2023-03-12T00:51:04.918Z,20.02
2023-03-12T00:53:31.822Z,19.65
2023-03-12T00:56:01.245Z,14.75
2023-03-12T00:58:27.984Z,16.70
2023-03-12T01:00:57.278Z,13.90
2023-03-12T01:03:24.384Z,14.52
2023-03-12T01:05:56.437Z,17.23
2023-03-12T01:08:26.454Z,19.23
2023-03-12T01:10:53.507Z,13.88
2023-03-12T01:13:20.624Z,16.20
2023-03-12T01:15:47.514Z,17.00
2023-03-12T01:18:14.568Z,16.75
2023-03-12T01:20:41.584Z,12.43
2023-03-12T01:23:09.230Z,14.55
2023-03-12T01:25:36.705Z,15.27
2023-03-12T01:28:03.573Z,12.65
2023-03-12T01:30:30.549Z,13.00
2023-03-12T01:32:57.365Z,10.85
2023-03-12T01:35:24.986Z,16.65
2023-03-12T01:37:52.464Z,11.27
2023-03-12T01:40:21.631Z,8.25
2023-03-12T01:42:56.712Z,10.85
2023-03-12T01:46:14.752Z,10.73
2023-03-12T01:48:49.098Z,12.05
2023-03-12T01:51:18.126Z,10.70
2023-03-12T01:53:49.656Z,10.80
2023-03-12T01:56:19.840Z,12.43
2023-03-12T01:58:53.140Z,11.32
2023-03-12T02:01:22.327Z,14.38
2023-03-12T02:03:53.587Z,11.13
2023-03-12T02:06:29.573Z,9.82
2023-03-12T02:08:59.616Z,7.97
2023-03-12T02:11:26.472Z,17.73
2023-03-12T02:13:53.484Z,11.40
2023-03-12T02:16:20.542Z,9.75
2023-03-12T02:18:50.710Z,12.45
2023-03-12T02:21:24.934Z,11.05
2023-03-12T02:24:14.778Z,7.50
2023-03-12T02:26:42.301Z,9.07
2023-03-12T02:29:10.679Z,15.30
2023-03-12T02:31:43.647Z,14.30
2023-03-12T02:34:10.907Z,9.20
2023-03-12T02:36:38.024Z,9.70
2023-03-12T02:39:06.074Z,10.50
2023-03-12T02:41:36.509Z,11.63
2023-03-12T02:44:09.446Z,8.98
2023-03-12T02:46:49.224Z,11.13
2023-03-12T02:49:18.553Z,10.55
2023-03-12T02:51:48.974Z,7.05
2023-03-12T02:54:18.989Z,9.15
2023-03-12T02:56:46.105Z,9.50
2023-03-12T02:59:14.595Z,12.80
2023-03-12T03:01:43.450Z,9.35
2023-03-12T03:04:11.771Z,10.27
2023-03-12T03:06:41.424Z,7.70
2023-03-12T03:09:08.165Z,4.80
2023-03-12T03:11:35.693Z,9.55
2023-03-12T03:14:04.711Z,6.93
2023-03-12T03:16:31.694Z,7.38
2023-03-12T03:18:59.002Z,9.85
2023-03-12T03:21:26.259Z,12.48
2023-03-12T03:23:52.968Z,11.32
2023-03-12T03:26:22.465Z,10.88
2023-03-12T03:28:49.470Z,5.50
2023-03-12T03:31:16.932Z,10.55
2023-03-12T03:33:44.565Z,5.07
2023-03-12T03:36:15.034Z,3.53
2023-03-12T03:38:50.689Z,11.88
2023-03-12T03:41:19.534Z,7.07
2023-03-12T03:43:47.085Z,8.10
2023-03-12T03:46:16.253Z,9.18
2023-03-12T03:48:46.885Z,10.38
2023-03-12T03:51:14.374Z,6.20
2023-03-12T03:53:44.870Z,11.82
2023-03-12T03:56:17.978Z,5.53
2023-03-12T03:58:47.991Z,8.90
2023-03-12T04:01:16.665Z,10.48
2023-03-12T04:03:44.847Z,7.55
2023-03-12T04:06:12.295Z,9.70
2023-03-12T04:08:40.354Z,7.15
2023-03-12T04:11:14.936Z,9.18
2023-03-12T04:13:42.911Z,9.52
2023-03-12T04:16:11.110Z,4.88
2023-03-12T04:18:38.180Z,11.10
2023-03-12T04:21:07.715Z,7.90
2023-03-12T04:23:35.394Z,9.43
2023-03-12T04:26:02.507Z,7.55
2023-03-12T04:28:30.121Z,12.50
2023-03-12T04:31:01.977Z,5.22
2023-03-12T04:33:37.622Z,7.05
2023-03-12T04:36:06.675Z,6.10
2023-03-12T04:38:35.631Z,5.22
2023-03-12T04:41:06.053Z,5.38
2023-03-12T04:43:33.954Z,3.22
2023-03-12T04:46:01.515Z,3.53
2023-03-12T04:48:29.155Z,6.10
2023-03-12T04:50:56.481Z,9.57
2023-03-12T04:53:23.999Z,7.18
2023-03-12T04:55:51.469Z,5.25
2023-03-12T04:58:19.299Z,9.88
2023-03-12T05:00:47.567Z,4.65
2023-03-12T05:03:15.070Z,5.88
2023-03-12T05:05:42.700Z,9.13
2023-03-12T05:08:10.112Z,7.15
2023-03-12T05:10:38.554Z,8.93
2023-03-12T05:13:18.128Z,7.07
2023-03-12T05:15:50.671Z,4.03
2023-03-12T05:18:20.499Z,5.13
2023-03-12T05:20:57.315Z,4.55
2023-03-12T05:23:24.559Z,6.68
2023-03-12T05:25:51.586Z,7.88
2023-03-12T05:28:20.126Z,7.25
2023-03-12T05:30:47.197Z,4.53
2023-03-12T05:33:14.202Z,6.78
2023-03-12T05:35:40.936Z,5.88
2023-03-12T05:38:07.688Z,2.47
2023-03-12T05:40:34.342Z,4.35
2023-03-12T05:43:01.106Z,7.47
2023-03-12T05:45:28.138Z,13.32
2023-03-12T05:47:58.558Z,6.97
2023-03-12T05:50:27.549Z,8.85
2023-03-12T05:52:54.474Z,10.13
2023-03-12T05:55:21.658Z,11.40
2023-03-12T05:57:48.567Z,7.63
2023-03-12T06:00:15.982Z,5.30
2023-03-12T06:02:50.961Z,6.18
2023-03-12T06:05:17.785Z,9.07
2023-03-12T06:07:44.558Z,6.63
2023-03-12T06:10:11.938Z,10.15
2023-03-12T06:12:39.031Z,11.50
2023-03-12T06:15:06.817Z,3.85
2023-03-12T06:17:33.721Z,16.10
2023-03-12T06:20:00.488Z,7.07
2023-03-12T06:22:28.894Z,6.50
2023-03-12T06:24:55.655Z,11.05
2023-03-12T06:27:22.369Z,6.25
2023-03-12T06:29:49.398Z,5.28
2023-03-12T06:32:16.350Z,5.45
2023-03-12T06:34:43.101Z,9.88
2023-03-12T06:37:10.756Z,6.15
2023-03-12T06:39:37.909Z,9.63
2023-03-12T06:42:05.587Z,10.25
2023-03-12T06:44:32.506Z,5.32
2023-03-12T06:46:59.344Z,7.90
2023-03-12T06:49:27.439Z,8.57
2023-03-12T06:51:55.904Z,2.38
2023-03-12T06:54:22.621Z,11.02
2023-03-12T06:56:49.405Z,14.43
2023-03-12T06:59:16.159Z,10.77
2023-03-12T07:01:43.030Z,7.90
2023-03-12T07:04:09.664Z,8.07
2023-03-12T07:06:36.381Z,5.68
2023-03-12T07:09:05.085Z,11.18
2023-03-12T07:11:32.214Z,9.70
2023-03-12T07:13:58.990Z,8.15
2023-03-12T07:16:25.629Z,6.85
2023-03-12T07:18:52.704Z,8.60
2023-03-12T07:21:23.809Z,7.65
2023-03-12T07:23:51.497Z,6.88
2023-03-12T07:26:19.061Z,10.25
2023-03-12T07:28:48.649Z,5.35
2023-03-12T07:31:15.355Z,15.82
2023-03-12T07:33:42.274Z,7.22
2023-03-12T07:36:09.237Z,8.90
2023-03-12T07:38:36.151Z,11.70
2023-03-12T07:41:02.935Z,7.07
2023-03-12T07:43:29.826Z,7.95
2023-03-12T07:45:57.004Z,9.52
2023-03-12T07:48:24.152Z,30.45
2023-03-12T07:50:51.014Z,12.88
2023-03-12T07:53:20.387Z,11.73
2023-03-12T07:55:48.385Z,10.57
2023-03-12T07:58:16.320Z,8.30
2023-03-12T08:00:43.196Z,8.30
2023-03-12T08:03:10.433Z,13.40
2023-03-12T08:05:37.514Z,11.63
2023-03-12T08:08:04.854Z,12.07
2023-03-12T08:10:31.854Z,6.38
2023-03-12T08:13:01.353Z,7.50
2023-03-12T08:15:28.202Z,5.18
2023-03-12T08:17:54.956Z,10.57
2023-03-12T08:20:21.709Z,13.05
2023-03-12T08:22:48.613Z,10.80
2023-03-12T08:25:16.245Z,11.82
2023-03-12T08:27:43.144Z,10.93
2023-03-12T08:30:10.992Z,9.35
2023-03-12T08:32:39.021Z,13.65
2023-03-12T08:35:06.255Z,12.32
2023-03-12T08:37:33.163Z,13.30
2023-03-12T08:40:00.494Z,5.97
2023-03-12T08:42:27.392Z,12.52
2023-03-12T08:44:54.342Z,6.95
2023-03-12T08:47:21.147Z,17.63
2023-03-12T08:49:48.166Z,10.27
2023-03-12T08:52:15.101Z,8.20
2023-03-12T08:54:42.134Z,15.57
2023-03-12T08:57:09.129Z,8.90
2023-03-12T08:59:36.281Z,11.13
2023-03-12T09:02:03.338Z,11.52
2023-03-12T09:04:32.423Z,8.88
2023-03-12T09:07:01.408Z,4.43
2023-03-12T09:09:28.208Z,12.43
2023-03-12T09:11:57.314Z,11.27
2023-03-12T09:17:11.200Z,6.20
2023-03-12T09:19:39.844Z,11.25
2023-03-12T09:22:06.652Z,10.35
2023-03-12T09:24:33.517Z,10.40
2023-03-12T09:27:00.338Z,15.23
2023-03-12T09:29:27.255Z,9.85
2023-03-12T09:31:54.569Z,16.02
2023-03-12T09:34:22.868Z,12.85
2023-03-12T09:36:50.123Z,8.45
2023-03-12T09:39:17.579Z,9.88
2023-03-12T09:41:47.857Z,11.20
2023-03-12T09:44:39.979Z,7.15
2023-03-12T09:47:19.203Z,10.70
2023-03-12T09:49:57.324Z,8.38
2023-03-12T09:52:43.515Z,7.45
2023-03-12T09:55:16.471Z,13.70
2023-03-12T09:57:44.970Z,11.55
2023-03-12T10:00:27.550Z,9.20
2023-03-12T10:02:58.495Z,7.85
2023-03-12T10:06:07.014Z,10.27
2023-03-12T10:08:37.213Z,8.43
2023-03-12T10:11:15.029Z,9.02
2023-03-12T10:14:03.917Z,14.13
2023-03-12T10:16:30.856Z,16.98
2023-03-12T10:19:00.935Z,11.70
2023-03-12T10:21:49.489Z,8.32
2023-03-12T10:24:31.776Z,12.18
2023-03-12T10:26:59.707Z,12.43
2023-03-12T10:29:33.144Z,7.63
2023-03-12T10:32:05.653Z,8.55
2023-03-12T10:34:43.206Z,13.88
2023-03-12T10:37:28.445Z,9.70
2023-03-12T10:39:55.956Z,16.48
2023-03-12T10:42:25.596Z,9.48
2023-03-12T10:47:36.982Z,10.40
2023-03-12T10:50:24.285Z,15.30
2023-03-12T10:52:53.547Z,12.77
2023-03-12T10:55:32.505Z,9.38
2023-03-12T10:57:59.772Z,13.80
2023-03-12T11:00:32.826Z,14.18
2023-03-12T11:03:08.985Z,12.60
2023-03-12T11:05:52.349Z,9.60
2023-03-12T11:08:21.999Z,14.70
2023-03-12T11:10:50.801Z,14.90
2023-03-12T11:13:35.826Z,10.02
2023-03-12T11:16:31.530Z,12.10
2023-03-12T11:19:04.193Z,11.57
2023-03-12T11:21:37.497Z,11.82
2023-03-12T11:24:09.113Z,8.60
2023-03-12T11:26:52.075Z,14.63
2023-03-12T11:29:33.315Z,8.70
2023-03-12T11:32:13.349Z,12.38
2023-03-12T11:34:40.128Z,8.00
2023-03-12T11:37:21.315Z,8.70
2023-03-12T11:40:16.458Z,8.50
2023-03-12T11:43:11.276Z,7.85
2023-03-12T11:45:47.091Z,11.23
2023-03-12T11:48:45.074Z,8.18
2023-03-12T11:51:34.582Z,10.38
2023-03-12T11:57:08.451Z,8.27
2023-03-12T11:59:38.095Z,7.20
2023-03-12T12:02:17.000Z,7.32
2023-03-12T12:04:53.492Z,7.45
2023-03-12T12:07:55.676Z,6.90
2023-03-12T12:10:26.796Z,7.25
2023-03-12T12:12:59.629Z,6.95
2023-03-12T12:15:49.088Z,8.35
2023-03-12T12:18:25.765Z,6.30
2023-03-12T12:21:08.041Z,7.32
2023-03-12T12:23:46.920Z,11.00
2023-03-12T12:26:38.794Z,11.73
2023-03-12T12:29:25.366Z,7.80
2023-03-12T12:31:58.097Z,10.63
2023-03-12T12:34:37.515Z,7.60
2023-03-12T12:37:22.781Z,8.23
2023-03-12T12:40:08.956Z,9.93
2023-03-12T12:42:47.585Z,8.50
2023-03-12T12:45:17.122Z,9.33
2023-03-12T12:47:55.468Z,7.63
2023-03-12T12:50:27.277Z,9.63
2023-03-12T12:53:13.857Z,7.35
2023-03-12T12:55:50.407Z,9.00
2023-03-12T12:58:26.100Z,7.30
2023-03-12T13:01:01.682Z,12.18
2023-03-12T13:03:30.888Z,15.20
2023-03-12T13:06:09.233Z,5.57
2023-03-12T13:09:22.360Z,11.68
2023-03-12T13:11:56.711Z,9.05
2023-03-12T13:14:41.563Z,8.90
2023-03-12T13:17:39.623Z,9.25
2023-03-12T13:20:11.226Z,11.77
2023-03-12T13:22:48.768Z,6.55
2023-03-12T13:25:15.998Z,15.98
2023-03-12T13:27:46.152Z,13.13
2023-03-12T13:30:32.759Z,11.43
2023-03-12T13:33:02.889Z,12.20
2023-03-12T13:35:39.500Z,14.43
2023-03-12T13:38:13.265Z,12.13
2023-03-12T13:40:55.193Z,10.65
2023-03-12T13:43:46.790Z,17.85
2023-03-12T13:46:16.628Z,17.13
2023-03-12T13:48:48.961Z,10.50
2023-03-12T13:51:21.851Z,12.75
2023-03-12T13:53:53.139Z,18.45
2023-03-12T13:56:26.053Z,17.98
2023-03-12T13:59:03.453Z,19.20
2023-03-12T14:01:54.511Z,14.48
2023-03-12T14:04:25.926Z,16.42
2023-03-12T14:07:13.463Z,13.15
2023-03-12T14:10:08.313Z,16.27
2023-03-12T14:12:50.951Z,15.38
2023-03-12T14:15:36.550Z,12.35
2023-03-12T14:18:22.509Z,15.20
2023-03-12T14:21:00.853Z,14.38
2023-03-12T14:23:37.118Z,15.65
2023-03-12T14:26:06.715Z,14.30
2023-03-12T14:28:41.634Z,16.88
2023-03-12T14:31:20.067Z,9.80
2023-03-12T14:34:10.200Z,15.27
2023-03-12T14:36:47.259Z,12.07
2023-03-12T14:39:39.708Z,11.93
2023-03-12T14:42:08.034Z,16.40
2023-03-12T14:44:39.851Z,17.67
2023-03-12T14:47:19.956Z,9.70
2023-03-12T14:49:47.252Z,13.75
2023-03-12T14:52:21.373Z,13.88
2023-03-12T14:55:04.226Z,26.05
2023-03-12T14:57:31.165Z,15.73
2023-03-12T15:00:00.266Z,14.57
2023-03-12T15:02:30.139Z,16.73
2023-03-12T15:05:00.397Z,13.27
2023-03-12T15:07:31.998Z,22.20
2023-03-12T15:10:06.167Z,13.18
2023-03-12T15:12:40.674Z,14.57
2023-03-12T15:15:29.668Z,24.27
2023-03-12T15:17:59.786Z,21.08
2023-03-12T15:20:27.314Z,16.20
2023-03-12T15:22:57.510Z,19.05
2023-03-12T15:25:30.521Z,19.20
2023-03-12T15:28:26.633Z,18.17
2023-03-12T15:31:10.839Z,19.00
2023-03-12T15:33:44.685Z,18.23
2023-03-12T15:36:14.951Z,17.08
2023-03-12T15:39:12.738Z,31.20
2023-03-12T15:41:49.109Z,17.70
2023-03-12T15:44:27.368Z,20.38
2023-03-12T15:46:58.106Z,17.35
2023-03-12T15:49:30.166Z,21.83
2023-03-12T15:52:26.451Z,20.30
2023-03-12T15:55:15.089Z,18.25
2023-03-12T15:57:51.252Z,19.95
2023-03-12T16:00:24.654Z,17.23
2023-03-12T16:03:08.280Z,17.55
2023-03-12T16:05:41.218Z,16.08
2023-03-12T16:08:34.348Z,21.77
2023-03-12T16:11:01.098Z,17.55
2023-03-12T16:13:31.374Z,17.65
2023-03-12T16:16:01.026Z,18.33
2023-03-12T16:18:32.779Z,14.57
2023-03-12T16:21:00.265Z,22.48
2023-03-12T16:23:27.224Z,24.20
2023-03-12T16:25:56.475Z,21.85
2023-03-12T16:28:28.780Z,17.20
2023-03-12T16:30:55.646Z,14.65
2023-03-12T16:33:24.796Z,19.55
2023-03-12T16:35:52.692Z,20.05
2023-03-12T16:38:22.047Z,15.15
2023-03-12T16:40:53.019Z,19.33
2023-03-12T16:43:26.758Z,21.35
2023-03-12T16:45:54.285Z,16.38
2023-03-12T16:48:24.396Z,24.42
2023-03-12T16:50:53.972Z,17.25
2023-03-12T16:53:21.743Z,25.20
2023-03-12T16:55:53.270Z,24.83
2023-03-12T16:58:22.025Z,14.23
2023-03-12T17:00:50.928Z,22.02
2023-03-12T17:03:42.142Z,21.63
2023-03-12T17:06:18.825Z,16.20
2023-03-12T17:08:46.046Z,19.92
2023-03-12T17:11:17.599Z,13.38
2023-03-12T17:13:47.331Z,15.63
2023-03-12T17:18:41.642Z,20.10
2023-03-12T17:21:12.390Z,16.33
2023-03-12T17:23:39.538Z,16.45
2023-03-12T17:26:07.540Z,15.65
2023-03-12T17:28:34.254Z,24.75
2023-03-12T17:31:05.132Z,18.17
2023-03-12T17:33:34.930Z,13.88
2023-03-12T17:36:07.748Z,20.33
2023-03-12T17:38:44.106Z,21.58
2023-03-12T17:41:25.427Z,20.20
2023-03-12T17:43:53.898Z,19.25
2023-03-12T17:46:21.428Z,25.80
2023-03-12T17:48:50.901Z,15.52
2023-03-12T17:51:18.076Z,18.98
2023-03-12T17:53:44.949Z,15.75
2023-03-12T17:56:12.780Z,22.02
2023-03-12T17:58:40.074Z,18.42
2023-03-12T18:01:07.348Z,20.52
2023-03-12T18:03:34.140Z,23.20
2023-03-12T18:06:00.908Z,21.90
2023-03-12T18:08:27.749Z,20.45
2023-03-12T18:10:55.182Z,19.52
2023-03-12T18:13:21.922Z,25.63
2023-03-12T18:15:58.443Z,23.33
2023-03-12T18:18:26.907Z,25.88
2023-03-12T18:20:54.254Z,24.05
2023-03-12T18:23:21.183Z,21.80
2023-03-12T18:25:48.042Z,16.23
2023-03-12T18:28:15.403Z,22.55
2023-03-12T18:30:47.064Z,34.45
2023-03-12T18:33:14.689Z,40.20
2023-03-12T18:35:43.550Z,38.58
2023-03-12T18:38:11.061Z,35.13
2023-03-12T18:40:38.178Z,39.33
2023-03-12T18:43:09.246Z,35.05
2023-03-12T18:45:35.997Z,36.05
2023-03-12T18:48:03.021Z,31.00
2023-03-12T18:50:30.190Z,27.50
2023-03-12T18:52:57.154Z,32.85
2023-03-12T18:55:26.404Z,35.75
2023-03-12T18:57:53.160Z,29.25
2023-03-12T19:00:22.336Z,29.45
2023-03-12T19:02:49.467Z,36.08
2023-03-12T19:05:16.787Z,30.30
2023-03-12T19:07:44.231Z,26.35
2023-03-12T19:10:14.961Z,31.85
2023-03-12T19:12:52.121Z,31.30
2023-03-12T19:15:24.456Z,24.75
2023-03-12T19:17:51.382Z,28.35
2023-03-12T19:20:18.494Z,33.47
2023-03-12T19:22:45.175Z,27.40
2023-03-12T19:25:12.154Z,30.10
2023-03-12T19:27:40.261Z,19.98
2023-03-12T19:30:07.651Z,21.10
2023-03-12T19:32:43.309Z,18.73
2023-03-12T19:35:12.612Z,23.05
2023-03-12T19:37:39.463Z,25.17
2023-03-12T19:40:07.380Z,26.52
2023-03-12T19:42:35.396Z,21.65
2023-03-12T19:45:02.352Z,23.05
2023-03-12T19:47:29.566Z,17.35
2023-03-12T19:49:56.355Z,26.38
2023-03-12T19:52:23.174Z,23.33
2023-03-12T19:55:03.385Z,20.92
2023-03-12T19:57:34.761Z,20.92
2023-03-12T20:00:01.632Z,25.23
2023-03-12T20:02:49.272Z,28.73
2023-03-12T20:05:16.206Z,25.08
2023-03-12T20:07:44.273Z,23.17
2023-03-12T20:10:12.939Z,25.38
2023-03-12T20:12:39.760Z,25.08
2023-03-12T20:15:07.176Z,22.70
2023-03-12T20:17:33.914Z,23.13
2023-03-12T20:20:01.464Z,23.70
2023-03-12T20:22:28.385Z,26.77
2023-03-12T20:24:55.117Z,26.33
2023-03-12T20:27:22.001Z,20.00
2023-03-12T20:29:49.920Z,24.73
2023-03-12T20:32:18.556Z,20.85
2023-03-12T20:34:47.801Z,24.40
2023-03-12T20:37:14.670Z,25.58
2023-03-12T20:39:41.421Z,26.10
2023-03-12T20:42:08.171Z,23.42
2023-03-12T20:44:35.202Z,21.48
2023-03-12T20:47:01.937Z,25.23
2023-03-12T20:49:28.777Z,20.90
2023-03-12T20:51:55.937Z,22.52
2023-03-12T20:54:22.915Z,17.67
2023-03-12T20:56:49.697Z,23.70
2023-03-12T20:59:16.552Z,18.65
2023-03-12T21:01:43.514Z,18.88
2023-03-12T21:04:10.451Z,22.25
2023-03-12T21:06:37.150Z,25.70
2023-03-12T21:09:06.293Z,21.73
2023-03-12T21:11:37.120Z,25.90
2023-03-12T21:14:03.832Z,24.00
2023-03-12T21:16:31.511Z,25.00
2023-03-12T21:19:03.255Z,26.08
2023-03-12T21:21:36.297Z,18.88
2023-03-12T21:24:03.281Z,23.17
2023-03-12T21:26:31.109Z,19.45
2023-03-12T21:28:57.926Z,14.32
2023-03-12T21:34:33.145Z,26.33
2023-03-12T21:36:59.983Z,23.52
2023-03-12T21:39:27.265Z,23.33
2023-03-12T21:42:00.007Z,22.60
2023-03-12T21:44:27.664Z,27.67
2023-03-12T21:46:55.021Z,26.98
2023-03-12T21:49:24.474Z,25.50
2023-03-12T21:51:52.726Z,17.98
2023-03-12T21:54:23.297Z,26.33
2023-03-12T21:56:50.224Z,27.40
2023-03-12T21:59:16.870Z,28.95
2023-03-12T22:01:43.777Z,27.30
2023-03-12T22:04:16.387Z,27.27
2023-03-12T22:06:43.511Z,19.88
2023-03-12T22:09:12.983Z,20.38
2023-03-12T22:11:40.140Z,20.60
2023-03-12T22:14:07.289Z,18.92
2023-03-12T22:16:34.953Z,16.75
2023-03-12T22:19:05.402Z,29.65
2023-03-12T22:21:32.505Z,17.73
2023-03-12T22:24:03.260Z,23.35
2023-03-12T22:26:31.424Z,18.90
2023-03-12T22:29:02.694Z,23.25
2023-03-12T22:31:31.391Z,17.73
2023-03-12T22:34:05.621Z,24.17
2023-03-12T22:36:32.681Z,15.13
2023-03-12T22:39:02.574Z,17.70
2023-03-12T22:41:32.908Z,18.88
2023-03-12T22:44:11.316Z,16.25
2023-03-12T22:46:42.326Z,17.13
2023-03-12T22:49:13.076Z,18.23
2023-03-12T22:51:52.285Z,14.27
2023-03-12T22:54:28.339Z,15.63
2023-03-12T22:56:58.267Z,21.27
2023-03-12T22:59:33.096Z,23.00
2023-03-12T23:02:00.893Z,17.65
2023-03-12T23:04:34.905Z,19.02
2023-03-12T23:07:14.586Z,20.98
2023-03-12T23:09:59.257Z,13.23
2023-03-12T23:12:39.836Z,16.90
2023-03-12T23:18:05.640Z,14.35
2023-03-12T23:20:33.091Z,18.23
2023-03-12T23:23:00.250Z,19.48
2023-03-12T23:25:28.118Z,16.55
2023-03-12T23:27:54.850Z,16.63
2023-03-12T23:30:21.556Z,13.57
2023-03-12T23:32:48.385Z,16.42
2023-03-12T23:35:18.804Z,16.27
2023-03-12T23:37:49.549Z,15.20
2023-03-12T23:40:17.179Z,18.40
2023-03-12T23:42:44.892Z,12.38
2023-03-12T23:45:12.293Z,10.77
2023-03-12T23:47:39.039Z,10.48
2023-03-12T23:50:09.365Z,12.60
2023-03-12T23:52:36.171Z,17.27
2023-03-12T23:55:05.497Z,15.52
2023-03-12T23:57:32.374Z,18.70
2023-03-12T23:59:59.212Z,18.42
